sensor_id;sensor_type;location;lat;lon;timestamp;P1;durP1;ratioP1;P2;durP2;ratioP2
56770;SDS011;42641;59.794;17.616;2023-08-07T00:02:16;17.08;;;12.00;;
56770;SDS011;42641;59.794;17.616;2023-08-07T00:04:43;12.25;;;10.48;;
56770;SDS011;42641;59.794;17.616;2023-08-07T00:07:09;11.50;;;10.30;;
56770;SDS011;42641;59.794;17.616;2023-08-07T00:09:36;15.88;;;11.48;;
56770;SDS011;42641;59.794;17.616;2023-08-07T00:12:02;9.70;;;8.90;;
56770;SDS011;42641;59.794;17.616;2023-08-07T00:14:29;13.35;;;10.45;;
56770;SDS011;42641;59.794;17.616;2023-08-07T00:16:56;11.13;;;10.10;;
56770;SDS011;42641;59.794;17.616;2023-08-07T00:19:23;21.95;;;12.95;;
56770;SDS011;42641;59.794;17.616;2023-08-07T00:21:49;15.75;;;12.10;;
56770;SDS011;42641;59.794;17.616;2023-08-07T00:24:16;16.60;;;14.00;;
56770;SDS011;42641;59.794;17.616;2023-08-07T00:26:42;16.05;;;13.38;;
56770;SDS011;42641;59.794;17.616;2023-08-07T00:29:08;24.02;;;14.93;;
56770;SDS011;42641;59.794;17.616;2023-08-07T00:31:35;21.92;;;14.23;;
56770;SDS011;42641;59.794;17.616;2023-08-07T00:34:01;26.85;;;14.70;;
56770;SDS011;42641;59.794;17.616;2023-08-07T00:36:29;23.73;;;15.80;;
56770;SDS011;42641;59.794;17.616;2023-08-07T00:39:00;15.55;;;13.88;;
56770;SDS011;42641;59.794;17.616;2023-08-07T00:41:30;13.95;;;11.77;;
56770;SDS011;42641;59.794;17.616;2023-08-07T00:43:56;15.02;;;12.55;;
56770;SDS011;42641;59.794;17.616;2023-08-07T00:46:23;18.98;;;15.00;;
56770;SDS011;42641;59.794;17.616;2023-08-07T00:48:51;18.52;;;15.30;;
56770;SDS011;42641;59.794;17.616;2023-08-07T00:51:19;18.75;;;14.38;;
56770;SDS011;42641;59.794;17.616;2023-08-07T00:53:46;17.50;;;15.32;;
56770;SDS011;42641;59.794;17.616;2023-08-07T00:56:14;16.92;;;12.90;;
56770;SDS011;42641;59.794;17.616;2023-08-07T00:58:41;19.73;;;16.30;;
56770;SDS011;42641;59.794;17.616;2023-08-07T01:01:07;16.33;;;14.10;;
56770;SDS011;42641;59.794;17.616;2023-08-07T01:03:34;15.52;;;12.73;;
56770;SDS011;42641;59.794;17.616;2023-08-07T01:06:01;27.35;;;17.45;;
56770;SDS011;42641;59.794;17.616;2023-08-07T01:08:27;32.95;;;18.33;;
56770;SDS011;42641;59.794;17.616;2023-08-07T01:16:05;23.50;;;17.98;;
56770;SDS011;42641;59.794;17.616;2023-08-07T01:18:40;35.53;;;19.58;;
56770;SDS011;42641;59.794;17.616;2023-08-07T01:21:16;28.33;;;19.85;;
56770;SDS011;42641;59.794;17.616;2023-08-07T01:23:47;25.73;;;18.88;;
56770;SDS011;42641;59.794;17.616;2023-08-07T01:26:15;22.83;;;18.48;;
56770;SDS011;42641;59.794;17.616;2023-08-07T01:29:06;24.13;;;17.00;;
56770;SDS011;42641;59.794;17.616;2023-08-07T01:31:40;28.27;;;18.52;;
56770;SDS011;42641;59.794;17.616;2023-08-07T01:34:10;17.73;;;14.65;;
56770;SDS011;42641;59.794;17.616;2023-08-07T01:36:39;16.77;;;15.13;;
56770;SDS011;42641;59.794;17.616;2023-08-07T01:39:07;16.90;;;14.73;;
56770;SDS011;42641;59.794;17.616;2023-08-07T01:41:34;24.02;;;17.70;;
56770;SDS011;42641;59.794;17.616;2023-08-07T01:44:02;29.63;;;17.08;;
56770;SDS011;42641;59.794;17.616;2023-08-07T01:46:29;402.65;;;39.78;;
56770;SDS011;42641;59.794;17.616;2023-08-07T01:48:56;45.40;;;22.15;;
56770;SDS011;42641;59.794;17.616;2023-08-07T01:51:22;22.08;;;17.88;;
56770;SDS011;42641;59.794;17.616;2023-08-07T01:53:49;23.20;;;18.70;;
56770;SDS011;42641;59.794;17.616;2023-08-07T01:56:15;24.40;;;19.60;;
56770;SDS011;42641;59.794;17.616;2023-08-07T01:58:42;25.40;;;19.08;;
56770;SDS011;42641;59.794;17.616;2023-08-07T02:01:08;22.52;;;18.88;;
56770;SDS011;42641;59.794;17.616;2023-08-07T02:03:35;21.95;;;14.98;;
56770;SDS011;42641;59.794;17.616;2023-08-07T02:06:01;16.88;;;13.38;;
56770;SDS011;42641;59.794;17.616;2023-08-07T02:08:28;17.05;;;13.48;;
56770;SDS011;42641;59.794;17.616;2023-08-07T02:10:54;14.90;;;12.85;;
56770;SDS011;42641;59.794;17.616;2023-08-07T02:13:21;16.27;;;14.43;;
56770;SDS011;42641;59.794;17.616;2023-08-07T02:15:47;17.33;;;14.95;;
56770;SDS011;42641;59.794;17.616;2023-08-07T02:18:14;16.92;;;15.23;;
56770;SDS011;42641;59.794;17.616;2023-08-07T02:20:40;19.40;;;15.00;;
56770;SDS011;42641;59.794;17.616;2023-08-07T02:23:07;23.60;;;16.55;;
56770;SDS011;42641;59.794;17.616;2023-08-07T02:25:34;20.65;;;17.58;;
56770;SDS011;42641;59.794;17.616;2023-08-07T02:28:00;19.02;;;16.67;;
56770;SDS011;42641;59.794;17.616;2023-08-07T02:30:27;18.67;;;16.75;;
56770;SDS011;42641;59.794;17.616;2023-08-07T02:32:53;19.58;;;16.58;;
56770;SDS011;42641;59.794;17.616;2023-08-07T02:35:20;20.55;;;15.65;;
56770;SDS011;42641;59.794;17.616;2023-08-07T02:37:47;19.60;;;15.95;;
56770;SDS011;42641;59.794;17.616;2023-08-07T02:40:13;17.00;;;15.25;;
56770;SDS011;42641;59.794;17.616;2023-08-07T02:42:41;21.95;;;17.15;;
56770;SDS011;42641;59.794;17.616;2023-08-07T02:45:08;19.98;;;15.95;;
56770;SDS011;42641;59.794;17.616;2023-08-07T02:47:35;19.10;;;16.65;;
56770;SDS011;42641;59.794;17.616;2023-08-07T02:50:01;18.33;;;15.43;;
56770;SDS011;42641;59.794;17.616;2023-08-07T02:52:29;16.15;;;14.48;;
56770;SDS011;42641;59.794;17.616;2023-08-07T02:54:56;17.33;;;15.63;;
56770;SDS011;42641;59.794;17.616;2023-08-07T02:57:22;16.00;;;14.27;;
56770;SDS011;42641;59.794;17.616;2023-08-07T02:59:48;14.95;;;13.23;;
56770;SDS011;42641;59.794;17.616;2023-08-07T03:02:15;16.08;;;14.05;;
56770;SDS011;42641;59.794;17.616;2023-08-07T03:04:41;15.88;;;13.98;;
56770;SDS011;42641;59.794;17.616;2023-08-07T03:07:08;15.52;;;13.75;;
56770;SDS011;42641;59.794;17.616;2023-08-07T03:09:34;16.42;;;14.68;;
56770;SDS011;42641;59.794;17.616;2023-08-07T03:12:01;15.55;;;14.07;;
56770;SDS011;42641;59.794;17.616;2023-08-07T03:14:30;15.77;;;13.40;;
56770;SDS011;42641;59.794;17.616;2023-08-07T03:16:57;16.17;;;14.07;;
56770;SDS011;42641;59.794;17.616;2023-08-07T03:19:23;15.15;;;13.15;;
56770;SDS011;42641;59.794;17.616;2023-08-07T03:21:50;12.45;;;11.20;;
56770;SDS011;42641;59.794;17.616;2023-08-07T03:24:17;12.85;;;11.23;;
56770;SDS011;42641;59.794;17.616;2023-08-07T03:26:43;13.50;;;12.15;;
56770;SDS011;42641;59.794;17.616;2023-08-07T03:29:10;11.90;;;10.80;;
56770;SDS011;42641;59.794;17.616;2023-08-07T03:31:37;12.07;;;10.88;;
56770;SDS011;42641;59.794;17.616;2023-08-07T03:34:04;13.35;;;11.75;;
56770;SDS011;42641;59.794;17.616;2023-08-07T03:36:31;13.13;;;10.80;;
56770;SDS011;42641;59.794;17.616;2023-08-07T03:38:57;13.30;;;11.57;;
56770;SDS011;42641;59.794;17.616;2023-08-07T03:41:24;14.48;;;12.13;;
56770;SDS011;42641;59.794;17.616;2023-08-07T03:43:51;13.57;;;12.10;;
56770;SDS011;42641;59.794;17.616;2023-08-07T03:46:18;10.70;;;9.65;;
56770;SDS011;42641;59.794;17.616;2023-08-07T03:48:44;11.82;;;10.65;;
56770;SDS011;42641;59.794;17.616;2023-08-07T03:51:11;13.15;;;11.85;;
56770;SDS011;42641;59.794;17.616;2023-08-07T03:53:50;13.68;;;12.35;;
56770;SDS011;42641;59.794;17.616;2023-08-07T03:56:17;15.77;;;13.15;;
56770;SDS011;42641;59.794;17.616;2023-08-07T03:58:43;12.77;;;11.48;;
56770;SDS011;42641;59.794;17.616;2023-08-07T04:01:11;13.10;;;11.90;;
56770;SDS011;42641;59.794;17.616;2023-08-07T04:03:38;13.32;;;11.90;;
56770;SDS011;42641;59.794;17.616;2023-08-07T04:06:05;13.02;;;11.63;;
56770;SDS011;42641;59.794;17.616;2023-08-07T04:08:31;12.60;;;11.35;;
56770;SDS011;42641;59.794;17.616;2023-08-07T04:11:02;14.60;;;12.85;;
56770;SDS011;42641;59.794;17.616;2023-08-07T04:13:33;12.52;;;11.38;;
56770;SDS011;42641;59.794;17.616;2023-08-07T04:15:59;11.63;;;10.43;;
56770;SDS011;42641;59.794;17.616;2023-08-07T04:18:30;13.35;;;12.05;;
56770;SDS011;42641;59.794;17.616;2023-08-07T04:20:57;13.27;;;11.27;;
56770;SDS011;42641;59.794;17.616;2023-08-07T04:23:24;12.35;;;11.18;;
56770;SDS011;42641;59.794;17.616;2023-08-07T04:25:51;12.15;;;10.98;;
56770;SDS011;42641;59.794;17.616;2023-08-07T04:28:19;12.02;;;10.82;;
56770;SDS011;42641;59.794;17.616;2023-08-07T04:30:48;11.98;;;10.73;;
56770;SDS011;42641;59.794;17.616;2023-08-07T04:33:22;13.57;;;11.15;;
56770;SDS011;42641;59.794;17.616;2023-08-07T04:35:48;14.75;;;11.82;;
56770;SDS011;42641;59.794;17.616;2023-08-07T04:38:15;12.55;;;11.27;;
56770;SDS011;42641;59.794;17.616;2023-08-07T04:40:48;12.98;;;11.73;;
56770;SDS011;42641;59.794;17.616;2023-08-07T04:43:16;13.10;;;11.25;;
56770;SDS011;42641;59.794;17.616;2023-08-07T04:45:43;11.25;;;10.00;;
56770;SDS011;42641;59.794;17.616;2023-08-07T04:48:13;11.23;;;10.05;;
56770;SDS011;42641;59.794;17.616;2023-08-07T04:50:40;12.98;;;10.63;;
56770;SDS011;42641;59.794;17.616;2023-08-07T04:53:07;11.13;;;10.00;;
56770;SDS011;42641;59.794;17.616;2023-08-07T04:55:33;9.98;;;8.98;;
56770;SDS011;42641;59.794;17.616;2023-08-07T04:58:00;11.57;;;10.48;;
56770;SDS011;42641;59.794;17.616;2023-08-07T05:00:27;11.73;;;10.63;;
56770;SDS011;42641;59.794;17.616;2023-08-07T05:02:54;12.32;;;11.13;;
56770;SDS011;42641;59.794;17.616;2023-08-07T05:05:20;12.30;;;11.05;;
56770;SDS011;42641;59.794;17.616;2023-08-07T05:07:47;12.80;;;11.50;;
56770;SDS011;42641;59.794;17.616;2023-08-07T05:10:14;13.18;;;11.68;;
56770;SDS011;42641;59.794;17.616;2023-08-07T05:12:41;14.27;;;12.88;;
56770;SDS011;42641;59.794;17.616;2023-08-07T05:15:07;15.45;;;13.35;;
56770;SDS011;42641;59.794;17.616;2023-08-07T05:17:34;14.55;;;13.10;;
56770;SDS011;42641;59.794;17.616;2023-08-07T05:20:00;13.20;;;11.90;;
56770;SDS011;42641;59.794;17.616;2023-08-07T05:22:27;16.27;;;14.15;;
56770;SDS011;42641;59.794;17.616;2023-08-07T05:24:54;15.88;;;14.20;;
56770;SDS011;42641;59.794;17.616;2023-08-07T05:27:20;15.93;;;14.35;;
56770;SDS011;42641;59.794;17.616;2023-08-07T05:29:47;16.85;;;15.15;;
56770;SDS011;42641;59.794;17.616;2023-08-07T05:32:14;17.13;;;15.25;;
56770;SDS011;42641;59.794;17.616;2023-08-07T05:34:41;24.10;;;18.60;;
56770;SDS011;42641;59.794;17.616;2023-08-07T05:37:07;19.77;;;17.75;;
56770;SDS011;42641;59.794;17.616;2023-08-07T05:39:34;21.92;;;19.52;;
56770;SDS011;42641;59.794;17.616;2023-08-07T05:42:01;22.60;;;18.83;;
56770;SDS011;42641;59.794;17.616;2023-08-07T05:44:28;20.50;;;18.40;;
56770;SDS011;42641;59.794;17.616;2023-08-07T05:46:55;21.15;;;18.85;;
56770;SDS011;42641;59.794;17.616;2023-08-07T05:49:22;22.23;;;19.15;;
56770;SDS011;42641;59.794;17.616;2023-08-07T05:51:49;21.25;;;19.08;;
56770;SDS011;42641;59.794;17.616;2023-08-07T05:54:15;24.67;;;19.50;;
56770;SDS011;42641;59.794;17.616;2023-08-07T05:56:42;26.25;;;20.42;;
56770;SDS011;42641;59.794;17.616;2023-08-07T05:59:09;25.90;;;20.67;;
56770;SDS011;42641;59.794;17.616;2023-08-07T06:01:35;20.00;;;17.90;;
56770;SDS011;42641;59.794;17.616;2023-08-07T06:04:02;40.75;;;25.25;;
56770;SDS011;42641;59.794;17.616;2023-08-07T06:06:29;26.80;;;22.90;;
56770;SDS011;42641;59.794;17.616;2023-08-07T06:09:00;38.40;;;25.48;;
56770;SDS011;42641;59.794;17.616;2023-08-07T06:11:28;29.92;;;24.33;;
56770;SDS011;42641;59.794;17.616;2023-08-07T06:13:54;26.15;;;21.80;;
56770;SDS011;42641;59.794;17.616;2023-08-07T06:16:21;31.77;;;23.83;;
56770;SDS011;42641;59.794;17.616;2023-08-07T06:18:47;28.75;;;22.38;;
56770;SDS011;42641;59.794;17.616;2023-08-07T06:21:13;22.42;;;20.05;;
56770;SDS011;42641;59.794;17.616;2023-08-07T06:23:40;25.23;;;20.42;;
56770;SDS011;42641;59.794;17.616;2023-08-07T06:26:07;22.70;;;19.35;;
56770;SDS011;42641;59.794;17.616;2023-08-07T06:28:34;25.48;;;19.90;;
56770;SDS011;42641;59.794;17.616;2023-08-07T06:31:08;26.25;;;20.40;;
56770;SDS011;42641;59.794;17.616;2023-08-07T06:33:36;21.05;;;18.25;;
56770;SDS011;42641;59.794;17.616;2023-08-07T06:36:03;21.17;;;18.90;;
56770;SDS011;42641;59.794;17.616;2023-08-07T06:38:30;22.30;;;18.13;;
56770;SDS011;42641;59.794;17.616;2023-08-07T06:40:56;21.88;;;17.95;;
56770;SDS011;42641;59.794;17.616;2023-08-07T06:43:23;21.10;;;18.98;;
56770;SDS011;42641;59.794;17.616;2023-08-07T06:45:50;20.67;;;17.38;;
56770;SDS011;42641;59.794;17.616;2023-08-07T06:48:17;19.90;;;16.77;;
56770;SDS011;42641;59.794;17.616;2023-08-07T06:50:46;21.30;;;18.17;;
56770;SDS011;42641;59.794;17.616;2023-08-07T06:53:12;19.90;;;17.60;;
56770;SDS011;42641;59.794;17.616;2023-08-07T06:55:40;23.00;;;17.63;;
56770;SDS011;42641;59.794;17.616;2023-08-07T06:58:07;19.88;;;17.88;;
56770;SDS011;42641;59.794;17.616;2023-08-07T07:00:34;23.13;;;17.77;;
56770;SDS011;42641;59.794;17.616;2023-08-07T07:03:01;18.50;;;16.20;;
56770;SDS011;42641;59.794;17.616;2023-08-07T07:05:29;21.58;;;18.55;;
56770;SDS011;42641;59.794;17.616;2023-08-07T07:07:56;17.75;;;16.05;;
56770;SDS011;42641;59.794;17.616;2023-08-07T07:10:23;19.13;;;17.25;;
56770;SDS011;42641;59.794;17.616;2023-08-07T07:12:49;19.00;;;17.00;;
56770;SDS011;42641;59.794;17.616;2023-08-07T07:15:16;17.67;;;16.05;;
56770;SDS011;42641;59.794;17.616;2023-08-07T07:17:42;18.48;;;16.67;;
56770;SDS011;42641;59.794;17.616;2023-08-07T07:20:09;18.75;;;16.80;;
56770;SDS011;42641;59.794;17.616;2023-08-07T07:22:36;18.50;;;16.60;;
56770;SDS011;42641;59.794;17.616;2023-08-07T07:25:03;18.73;;;16.90;;
56770;SDS011;42641;59.794;17.616;2023-08-07T07:27:30;18.13;;;16.33;;
56770;SDS011;42641;59.794;17.616;2023-08-07T07:29:57;20.50;;;18.35;;
56770;SDS011;42641;59.794;17.616;2023-08-07T07:32:23;19.05;;;17.20;;
56770;SDS011;42641;59.794;17.616;2023-08-07T07:34:51;19.35;;;17.27;;
56770;SDS011;42641;59.794;17.616;2023-08-07T07:37:18;20.30;;;17.75;;
56770;SDS011;42641;59.794;17.616;2023-08-07T07:39:44;19.02;;;17.33;;
56770;SDS011;42641;59.794;17.616;2023-08-07T07:42:11;18.58;;;16.70;;
56770;SDS011;42641;59.794;17.616;2023-08-07T07:44:37;19.33;;;16.70;;
56770;SDS011;42641;59.794;17.616;2023-08-07T07:47:05;20.48;;;18.38;;
56770;SDS011;42641;59.794;17.616;2023-08-07T07:49:32;19.85;;;17.77;;
56770;SDS011;42641;59.794;17.616;2023-08-07T07:52:00;19.83;;;17.75;;
56770;SDS011;42641;59.794;17.616;2023-08-07T07:54:27;20.13;;;18.13;;
56770;SDS011;42641;59.794;17.616;2023-08-07T07:56:54;19.65;;;16.85;;
56770;SDS011;42641;59.794;17.616;2023-08-07T07:59:21;18.30;;;16.10;;
56770;SDS011;42641;59.794;17.616;2023-08-07T08:01:47;21.42;;;17.75;;
56770;SDS011;42641;59.794;17.616;2023-08-07T08:04:14;18.33;;;16.52;;
56770;SDS011;42641;59.794;17.616;2023-08-07T08:06:40;18.58;;;16.75;;
56770;SDS011;42641;59.794;17.616;2023-08-07T08:09:07;17.67;;;15.88;;
56770;SDS011;42641;59.794;17.616;2023-08-07T08:11:35;17.85;;;16.05;;
56770;SDS011;42641;59.794;17.616;2023-08-07T08:14:02;18.02;;;16.33;;
56770;SDS011;42641;59.794;17.616;2023-08-07T08:16:28;17.40;;;15.77;;
56770;SDS011;42641;59.794;17.616;2023-08-07T08:18:54;17.95;;;16.10;;
56770;SDS011;42641;59.794;17.616;2023-08-07T08:21:21;18.00;;;15.85;;
56770;SDS011;42641;59.794;17.616;2023-08-07T08:23:47;17.40;;;15.70;;
56770;SDS011;42641;59.794;17.616;2023-08-07T08:26:15;18.73;;;16.73;;
56770;SDS011;42641;59.794;17.616;2023-08-07T08:28:42;18.58;;;16.88;;
56770;SDS011;42641;59.794;17.616;2023-08-07T08:31:09;18.23;;;16.52;;
56770;SDS011;42641;59.794;17.616;2023-08-07T08:33:36;18.90;;;16.95;;
56770;SDS011;42641;59.794;17.616;2023-08-07T08:36:03;17.77;;;16.05;;
56770;SDS011;42641;59.794;17.616;2023-08-07T08:38:30;18.55;;;16.75;;
56770;SDS011;42641;59.794;17.616;2023-08-07T08:41:01;19.77;;;17.98;;
56770;SDS011;42641;59.794;17.616;2023-08-07T08:43:33;20.83;;;18.73;;
56770;SDS011;42641;59.794;17.616;2023-08-07T08:46:04;19.98;;;18.00;;
56770;SDS011;42641;59.794;17.616;2023-08-07T08:48:31;19.88;;;16.85;;
56770;SDS011;42641;59.794;17.616;2023-08-07T08:51:03;18.58;;;17.02;;
56770;SDS011;42641;59.794;17.616;2023-08-07T08:53:30;17.48;;;15.88;;
56770;SDS011;42641;59.794;17.616;2023-08-07T08:55:59;18.10;;;16.33;;
56770;SDS011;42641;59.794;17.616;2023-08-07T08:58:27;17.65;;;15.82;;
56770;SDS011;42641;59.794;17.616;2023-08-07T09:00:54;18.58;;;16.65;;
56770;SDS011;42641;59.794;17.616;2023-08-07T09:03:22;16.95;;;15.25;;
56770;SDS011;42641;59.794;17.616;2023-08-07T09:05:52;16.85;;;15.25;;
56770;SDS011;42641;59.794;17.616;2023-08-07T09:08:22;16.50;;;14.88;;
56770;SDS011;42641;59.794;17.616;2023-08-07T09:10:55;17.00;;;15.13;;
56770;SDS011;42641;59.794;17.616;2023-08-07T09:13:23;17.80;;;15.52;;
56770;SDS011;42641;59.794;17.616;2023-08-07T09:15:52;17.95;;;14.98;;
56770;SDS011;42641;59.794;17.616;2023-08-07T09:18:19;17.42;;;15.73;;
56770;SDS011;42641;59.794;17.616;2023-08-07T09:20:47;20.98;;;15.75;;
56770;SDS011;42641;59.794;17.616;2023-08-07T09:23:15;16.45;;;14.68;;
56770;SDS011;42641;59.794;17.616;2023-08-07T09:25:46;19.63;;;15.30;;
56770;SDS011;42641;59.794;17.616;2023-08-07T09:28:13;15.43;;;13.93;;
56770;SDS011;42641;59.794;17.616;2023-08-07T09:30:43;15.07;;;13.73;;
56770;SDS011;42641;59.794;17.616;2023-08-07T09:33:10;18.77;;;14.70;;
56770;SDS011;42641;59.794;17.616;2023-08-07T09:35:37;15.55;;;14.25;;
56770;SDS011;42641;59.794;17.616;2023-08-07T09:38:04;15.48;;;13.88;;
56770;SDS011;42641;59.794;17.616;2023-08-07T09:40:33;15.25;;;13.80;;
56770;SDS011;42641;59.794;17.616;2023-08-07T09:43:00;15.48;;;14.18;;
56770;SDS011;42641;59.794;17.616;2023-08-07T09:45:28;15.65;;;14.02;;
56770;SDS011;42641;59.794;17.616;2023-08-07T09:47:59;16.48;;;14.55;;
56770;SDS011;42641;59.794;17.616;2023-08-07T09:50:27;15.60;;;14.10;;
56770;SDS011;42641;59.794;17.616;2023-08-07T09:52:55;16.15;;;14.45;;
56770;SDS011;42641;59.794;17.616;2023-08-07T09:55:22;15.30;;;13.88;;
56770;SDS011;42641;59.794;17.616;2023-08-07T09:57:49;16.48;;;14.65;;
56770;SDS011;42641;59.794;17.616;2023-08-07T10:00:17;14.90;;;13.50;;
56770;SDS011;42641;59.794;17.616;2023-08-07T10:02:47;17.08;;;14.63;;
56770;SDS011;42641;59.794;17.616;2023-08-07T10:05:16;15.75;;;14.18;;
56770;SDS011;42641;59.794;17.616;2023-08-07T10:07:43;16.85;;;15.15;;
56770;SDS011;42641;59.794;17.616;2023-08-07T10:10:09;16.08;;;14.57;;
56770;SDS011;42641;59.794;17.616;2023-08-07T10:12:37;16.35;;;14.60;;
56770;SDS011;42641;59.794;17.616;2023-08-07T10:15:04;17.30;;;15.68;;
56770;SDS011;42641;59.794;17.616;2023-08-07T10:17:32;16.77;;;15.18;;
56770;SDS011;42641;59.794;17.616;2023-08-07T10:19:59;16.77;;;15.07;;
56770;SDS011;42641;59.794;17.616;2023-08-07T10:22:26;16.50;;;14.70;;
56770;SDS011;42641;59.794;17.616;2023-08-07T10:24:56;16.75;;;14.93;;
56770;SDS011;42641;59.794;17.616;2023-08-07T10:27:26;15.32;;;13.93;;
56770;SDS011;42641;59.794;17.616;2023-08-07T10:29:55;16.00;;;14.10;;
56770;SDS011;42641;59.794;17.616;2023-08-07T10:32:24;16.10;;;14.38;;
56770;SDS011;42641;59.794;17.616;2023-08-07T10:34:52;16.42;;;14.95;;
56770;SDS011;42641;59.794;17.616;2023-08-07T10:40:06;16.00;;;14.52;;
56770;SDS011;42641;59.794;17.616;2023-08-07T10:45:26;16.40;;;13.82;;
56770;SDS011;42641;59.794;17.616;2023-08-07T10:48:05;15.45;;;13.80;;
56770;SDS011;42641;59.794;17.616;2023-08-07T10:50:49;16.52;;;14.52;;
56770;SDS011;42641;59.794;17.616;2023-08-07T10:53:31;16.35;;;14.10;;
56770;SDS011;42641;59.794;17.616;2023-08-07T10:56:07;15.80;;;14.30;;
56770;SDS011;42641;59.794;17.616;2023-08-07T10:58:35;15.88;;;14.40;;
56770;SDS011;42641;59.794;17.616;2023-08-07T11:03:48;15.73;;;14.27;;
56770;SDS011;42641;59.794;17.616;2023-08-07T11:06:23;16.20;;;14.60;;
56770;SDS011;42641;59.794;17.616;2023-08-07T11:08:52;19.83;;;14.77;;
56770;SDS011;42641;59.794;17.616;2023-08-07T11:11:19;15.65;;;14.05;;
56770;SDS011;42641;59.794;17.616;2023-08-07T11:13:47;16.02;;;14.25;;
56770;SDS011;42641;59.794;17.616;2023-08-07T11:16:14;15.45;;;13.95;;
56770;SDS011;42641;59.794;17.616;2023-08-07T11:18:41;15.20;;;13.77;;
56770;SDS011;42641;59.794;17.616;2023-08-07T11:21:10;15.23;;;13.82;;
56770;SDS011;42641;59.794;17.616;2023-08-07T11:23:37;14.82;;;13.38;;
56770;SDS011;42641;59.794;17.616;2023-08-07T11:26:05;15.60;;;13.93;;
56770;SDS011;42641;59.794;17.616;2023-08-07T11:28:31;15.88;;;14.25;;
56770;SDS011;42641;59.794;17.616;2023-08-07T11:30:58;15.48;;;14.05;;
56770;SDS011;42641;59.794;17.616;2023-08-07T11:33:25;14.23;;;12.75;;
56770;SDS011;42641;59.794;17.616;2023-08-07T11:35:52;14.60;;;13.20;;
56770;SDS011;42641;59.794;17.616;2023-08-07T11:38:38;15.50;;;13.95;;
56770;SDS011;42641;59.794;17.616;2023-08-07T11:41:09;14.65;;;13.20;;
56770;SDS011;42641;59.794;17.616;2023-08-07T11:43:38;14.82;;;13.43;;
56770;SDS011;42641;59.794;17.616;2023-08-07T11:46:06;13.95;;;12.65;;
56770;SDS011;42641;59.794;17.616;2023-08-07T11:48:34;14.90;;;13.70;;
56770;SDS011;42641;59.794;17.616;2023-08-07T11:51:02;15.25;;;13.90;;
56770;SDS011;42641;59.794;17.616;2023-08-07T11:53:33;15.60;;;14.00;;
56770;SDS011;42641;59.794;17.616;2023-08-07T11:56:02;14.88;;;13.40;;
56770;SDS011;42641;59.794;17.616;2023-08-07T11:58:36;14.88;;;13.45;;
56770;SDS011;42641;59.794;17.616;2023-08-07T12:01:05;15.50;;;13.70;;
56770;SDS011;42641;59.794;17.616;2023-08-07T12:03:36;14.85;;;13.60;;
56770;SDS011;42641;59.794;17.616;2023-08-07T12:06:09;16.23;;;14.05;;
56770;SDS011;42641;59.794;17.616;2023-08-07T12:08:39;16.63;;;13.88;;
56770;SDS011;42641;59.794;17.616;2023-08-07T12:11:16;15.40;;;13.98;;
56770;SDS011;42641;59.794;17.616;2023-08-07T12:13:43;16.60;;;14.85;;
56770;SDS011;42641;59.794;17.616;2023-08-07T12:16:11;15.85;;;14.35;;
56770;SDS011;42641;59.794;17.616;2023-08-07T12:18:45;16.55;;;14.43;;
56770;SDS011;42641;59.794;17.616;2023-08-07T12:21:17;17.35;;;15.43;;
56770;SDS011;42641;59.794;17.616;2023-08-07T12:23:48;17.08;;;15.27;;
56770;SDS011;42641;59.794;17.616;2023-08-07T12:26:16;17.55;;;15.93;;
56770;SDS011;42641;59.794;17.616;2023-08-07T12:28:43;20.05;;;15.68;;
56770;SDS011;42641;59.794;17.616;2023-08-07T12:31:10;17.88;;;16.00;;
56770;SDS011;42641;59.794;17.616;2023-08-07T12:33:36;16.88;;;15.38;;
56770;SDS011;42641;59.794;17.616;2023-08-07T12:36:03;17.95;;;15.57;;
56770;SDS011;42641;59.794;17.616;2023-08-07T12:38:29;17.25;;;14.98;;
56770;SDS011;42641;59.794;17.616;2023-08-07T12:40:56;15.73;;;14.45;;
56770;SDS011;42641;59.794;17.616;2023-08-07T12:43:23;16.27;;;14.60;;
56770;SDS011;42641;59.794;17.616;2023-08-07T12:45:49;16.38;;;14.73;;
56770;SDS011;42641;59.794;17.616;2023-08-07T12:48:15;15.75;;;14.32;;
56770;SDS011;42641;59.794;17.616;2023-08-07T12:50:44;18.00;;;14.25;;
56770;SDS011;42641;59.794;17.616;2023-08-07T12:53:10;15.82;;;14.32;;
56770;SDS011;42641;59.794;17.616;2023-08-07T12:55:36;16.70;;;14.85;;
56770;SDS011;42641;59.794;17.616;2023-08-07T12:58:03;16.48;;;14.85;;
56770;SDS011;42641;59.794;17.616;2023-08-07T13:00:29;17.65;;;15.93;;
56770;SDS011;42641;59.794;17.616;2023-08-07T13:02:57;16.33;;;14.90;;
56770;SDS011;42641;59.794;17.616;2023-08-07T13:05:24;17.08;;;15.38;;
56770;SDS011;42641;59.794;17.616;2023-08-07T13:07:51;17.23;;;15.50;;
56770;SDS011;42641;59.794;17.616;2023-08-07T13:10:20;16.20;;;14.65;;
56770;SDS011;42641;59.794;17.616;2023-08-07T13:12:47;17.13;;;15.30;;
56770;SDS011;42641;59.794;17.616;2023-08-07T13:15:15;16.60;;;14.95;;
56770;SDS011;42641;59.794;17.616;2023-08-07T13:17:43;16.85;;;15.25;;
56770;SDS011;42641;59.794;17.616;2023-08-07T13:20:11;16.20;;;14.60;;
56770;SDS011;42641;59.794;17.616;2023-08-07T13:22:42;15.32;;;13.85;;
56770;SDS011;42641;59.794;17.616;2023-08-07T13:25:10;17.23;;;15.40;;
56770;SDS011;42641;59.794;17.616;2023-08-07T13:27:38;17.45;;;15.77;;
56770;SDS011;42641;59.794;17.616;2023-08-07T13:30:06;17.33;;;15.60;;
56770;SDS011;42641;59.794;17.616;2023-08-07T13:32:33;16.25;;;14.60;;
56770;SDS011;42641;59.794;17.616;2023-08-07T13:34:59;16.30;;;14.68;;
56770;SDS011;42641;59.794;17.616;2023-08-07T13:37:26;16.30;;;14.60;;
56770;SDS011;42641;59.794;17.616;2023-08-07T13:39:52;21.02;;;14.93;;
56770;SDS011;42641;59.794;17.616;2023-08-07T13:42:20;15.50;;;14.00;;
56770;SDS011;42641;59.794;17.616;2023-08-07T13:44:49;15.75;;;13.65;;
56770;SDS011;42641;59.794;17.616;2023-08-07T13:47:16;15.52;;;14.13;;
56770;SDS011;42641;59.794;17.616;2023-08-07T13:49:43;13.43;;;12.23;;
56770;SDS011;42641;59.794;17.616;2023-08-07T13:52:10;15.02;;;13.43;;
56770;SDS011;42641;59.794;17.616;2023-08-07T13:54:36;13.77;;;12.48;;
56770;SDS011;42641;59.794;17.616;2023-08-07T13:57:03;13.80;;;12.35;;
56770;SDS011;42641;59.794;17.616;2023-08-07T13:59:29;14.50;;;12.77;;
56770;SDS011;42641;59.794;17.616;2023-08-07T14:01:57;14.40;;;12.52;;
56770;SDS011;42641;59.794;17.616;2023-08-07T14:04:23;15.20;;;13.70;;
56770;SDS011;42641;59.794;17.616;2023-08-07T14:06:50;16.80;;;13.70;;
56770;SDS011;42641;59.794;17.616;2023-08-07T14:09:16;14.48;;;13.18;;
56770;SDS011;42641;59.794;17.616;2023-08-07T14:11:44;14.52;;;13.13;;
56770;SDS011;42641;59.794;17.616;2023-08-07T14:14:10;13.27;;;12.10;;
56770;SDS011;42641;59.794;17.616;2023-08-07T14:16:37;13.98;;;12.65;;
56770;SDS011;42641;59.794;17.616;2023-08-07T14:19:03;14.70;;;13.18;;
56770;SDS011;42641;59.794;17.616;2023-08-07T14:21:30;15.32;;;13.85;;
56770;SDS011;42641;59.794;17.616;2023-08-07T14:23:56;15.85;;;14.23;;
56770;SDS011;42641;59.794;17.616;2023-08-07T14:26:23;16.27;;;13.80;;